Time;durP1;ratioP1;P1;durP2;ratioP2;P2;SDS_P1;SDS_P2;PMS_P1;PMS_P2;Temp;Humidity;BMP_temperature;BMP_pressure;BME280_temperature;BME280_humidity;BME280_pressure;Samples;Min_cycle;Max_cycle;Signal;HPM_P1;HPM_P2
2021/01/07 00:01:59;;;;;;;8.50;7.60;;;;;;;4.00;69.49;100670.50;5110570;28;20191;-66
2021/01/07 00:04:25;;;;;;;12.10;9.80;;;;;;;4.00;69.57;100671.38;5119309;28;20220;-66
2021/01/07 00:06:51;;;;;;;11.90;9.63;;;;;;;4.31;68.36;100671.56;5108075;28;20269;-69
2021/01/07 00:09:16;;;;;;;10.07;8.20;;;;;;;4.27;69.01;100670.59;5110375;27;20433;-67
2021/01/07 00:11:42;;;;;;;12.60;8.23;;;;;;;8.12;79.72;100666.84;5114390;28;20267;-61
2021/01/07 00:14:08;;;;;;;9.47;7.87;;;;;;;9.29;60.89;100642.72;5107647;28;20180;-61
2021/01/07 00:16:34;;;;;;;7.10;6.40;;;;;;;6.99;58.07;100654.16;5100406;28;20421;-66
2021/01/07 00:18:59;;;;;;;7.83;7.03;;;;;;;5.99;62.01;100658.59;5100551;28;20173;-65
2021/01/07 00:21:24;;;;;;;7.10;6.50;;;;;;;5.63;63.06;100659.31;5100158;28;20467;-65
2021/01/07 00:23:50;;;;;;;6.90;6.20;;;;;;;4.64;66.08;100660.59;5099941;28;20215;-65
2021/01/07 00:26:15;;;;;;;7.20;6.50;;;;;;;4.54;66.59;100662.03;5100279;28;20591;-65
2021/01/07 00:28:40;;;;;;;8.83;7.97;;;;;;;4.55;67.38;100659.47;5099831;28;20200;-64
2021/01/07 00:31:06;;;;;;;8.27;7.30;;;;;;;4.36;67.67;100655.41;5099880;28;20176;-65
2021/01/07 00:33:31;;;;;;;7.50;6.80;;;;;;;4.41;67.92;100654.69;5100102;28;20560;-64
2021/01/07 00:35:56;;;;;;;8.53;7.27;;;;;;;4.50;67.97;100655.00;5099658;28;20168;-65
2021/01/07 00:38:22;;;;;;;9.30;7.83;;;;;;;4.45;68.62;100652.28;5099640;28;20253;-65
2021/01/07 00:40:47;;;;;;;9.77;8.33;;;;;;;4.41;67.80;100654.69;5099815;28;20210;-65
2021/01/07 00:43:15;;;;;;;10.67;8.37;;;;;;;4.05;68.99;100651.78;5099485;28;20546;-66
2021/01/07 00:45:40;;;;;;;10.50;8.70;;;;;;;4.05;68.83;100656.09;5099425;28;20266;-65
2021/01/07 00:48:06;;;;;;;9.77;8.10;;;;;;;4.19;68.53;100652.28;5099792;28;20915;-65
2021/01/07 00:50:31;;;;;;;9.60;8.50;;;;;;;4.18;69.01;100652.22;5098769;28;20176;-64
2021/01/07 00:52:57;;;;;;;9.63;8.63;;;;;;;4.14;69.52;100656.41;5099471;28;20701;-64
2021/01/07 00:55:22;;;;;;;9.50;8.43;;;;;;;4.14;69.19;100652.94;5099636;28;20164;-64
2021/01/07 00:57:48;;;;;;;8.93;7.90;;;;;;;4.24;68.15;100655.00;5099287;28;20245;-65
2021/01/07 01:00:17;;;;;;;11.40;8.67;;;;;;;4.20;68.89;100651.44;5099076;28;20176;-65
2021/01/07 01:02:43;;;;;;;8.90;8.00;;;;;;;4.33;67.97;100647.59;5099413;28;20160;-65
2021/01/07 01:05:09;;;;;;;9.50;8.50;;;;;;;4.22;68.67;100647.22;5098142;28;20745;-65
2021/01/07 01:07:34;;;;;;;9.50;8.40;;;;;;;4.19;67.88;100648.81;5099252;28;20204;-65
2021/01/07 01:10:00;;;;;;;9.73;7.83;;;;;;;4.04;68.49;100644.88;5099248;28;20426;-64
2021/01/07 01:12:25;;;;;;;9.67;8.10;;;;;;;3.77;70.15;100646.50;5098955;28;20191;-65
2021/01/07 01:14:51;;;;;;;10.17;9.00;;;;;;;4.25;68.91;100642.97;5099017;28;20179;-66
2021/01/07 01:17:16;;;;;;;9.60;8.10;;;;;;;4.09;69.93;100650.19;5099227;28;20263;-64
2021/01/07 01:19:42;;;;;;;9.10;7.70;;;;;;;4.22;68.26;100643.75;5098684;28;20172;-65
2021/01/07 01:22:07;;;;;;;9.67;7.47;;;;;;;4.25;68.43;100635.22;5098766;28;20432;-65
2021/01/07 01:24:33;;;;;;;10.17;8.60;;;;;;;4.18;68.54;100644.47;5098459;28;20457;-65
2021/01/07 01:26:59;;;;;;;9.57;8.10;;;;;;;3.76;71.04;100642.16;5098593;28;20219;-66
2021/01/07 01:29:24;;;;;;;8.50;7.33;;;;;;;3.87;70.13;100646.00;5098726;28;20463;-66
2021/01/07 01:31:50;;;;;;;9.17;7.87;;;;;;;3.92;69.98;100643.56;5098502;28;20414;-65
2021/01/07 01:34:17;;;;;;;12.37;10.57;;;;;;;4.15;68.50;100647.81;5098574;28;20183;-65
2021/01/07 01:36:42;;;;;;;8.23;7.20;;;;;;;3.83;69.71;100652.75;5098396;28;20699;-65
2021/01/07 01:39:07;;;;;;;8.77;7.03;;;;;;;3.98;69.65;100644.66;5098565;28;20437;-65
2021/01/07 01:41:46;;;;;;;8.63;7.03;;;;;;;3.91;69.30;100634.97;5080970;28;20164;-66
2021/01/07 01:44:16;;;;;;;9.00;7.90;;;;;;;3.92;69.25;100639.28;5098488;28;20194;-66
2021/01/07 01:46:41;;;;;;;9.83;7.70;;;;;;;3.99;69.18;100638.69;5097671;28;20467;-65
2021/01/07 01:49:08;;;;;;;8.60;7.40;;;;;;;3.65;69.66;100639.19;5098886;28;20856;-64
2021/01/07 01:51:34;;;;;;;9.00;6.90;;;;;;;3.27;70.86;100646.41;5098474;28;20419;-65
2021/01/07 01:54:00;;;;;;;8.33;7.00;;;;;;;3.74;70.11;100633.50;5097537;28;20422;-66
2021/01/07 01:56:25;;;;;;;8.07;7.20;;;;;;;3.91;70.08;100634.06;5098777;28;20486;-65
2021/01/07 01:58:51;;;;;;;9.03;7.17;;;;;;;4.02;69.75;100640.50;5097461;28;20419;-65
2021/01/07 02:01:17;;;;;;;9.27;7.87;;;;;;;3.68;70.87;100637.63;5098237;28;20168;-64
2021/01/07 02:03:43;;;;;;;7.57;6.60;;;;;;;3.82;70.03;100634.66;5098524;28;20410;-65
2021/01/07 02:06:12;;;;;;;8.67;7.30;;;;;;;3.96;69.90;100636.00;5098210;28;20414;-65
2021/01/07 02:08:39;;;;;;;7.73;6.43;;;;;;;4.05;69.08;100638.03;5098094;28;20238;-64
2021/01/07 02:11:05;;;;;;;9.23;6.60;;;;;;;3.82;70.06;100638.09;5097582;28;20411;-64
2021/01/07 02:13:30;;;;;;;7.27;6.50;;;;;;;4.00;68.80;100644.72;5097193;28;20425;-64
2021/01/07 02:15:57;;;;;;;7.10;6.33;;;;;;;4.00;69.58;100636.97;5097900;28;20544;-65
2021/01/07 02:18:22;;;;;;;6.83;6.07;;;;;;;3.76;70.22;100631.84;5098468;28;20491;-65
2021/01/07 02:20:47;;;;;;;8.70;6.77;;;;;;;3.69;70.52;100629.06;5097896;28;20457;-64
2021/01/07 02:23:13;;;;;;;8.70;6.37;;;;;;;4.22;68.59;100625.69;5097055;28;20231;-65
2021/01/07 02:25:38;;;;;;;8.47;6.87;;;;;;;4.02;69.97;100630.19;5097450;28;20196;-65
2021/01/07 02:28:04;;;;;;;6.53;5.83;;;;;;;3.75;69.85;100630.06;5097754;28;20212;-66
2021/01/07 02:30:29;;;;;;;8.30;6.77;;;;;;;3.77;70.05;100631.03;5097022;28;20176;-65
2021/01/07 02:32:54;;;;;;;6.77;6.07;;;;;;;3.70;71.15;100624.78;5098102;28;20421;-64
2021/01/07 02:35:20;;;;;;;8.23;6.57;;;;;;;3.73;70.55;100622.28;5097646;28;20183;-65
2021/01/07 02:37:46;;;;;;;7.60;6.40;;;;;;;3.77;70.59;100615.56;5097626;28;20214;-65
2021/01/07 02:40:12;;;;;;;9.70;7.90;;;;;;;3.76;70.06;100617.25;5097982;28;20174;-65
2021/01/07 02:42:37;;;;;;;9.47;7.73;;;;;;;3.86;69.73;100618.47;5097566;28;20414;-64
2021/01/07 02:45:04;;;;;;;9.83;7.50;;;;;;;4.02;69.60;100617.28;5097710;28;20827;-65
2021/01/07 02:47:30;;;;;;;8.60;7.13;;;;;;;3.71;71.06;100617.09;5098013;28;20499;-64
2021/01/07 02:49:55;;;;;;;8.20;7.00;;;;;;;3.99;69.26;100620.63;5097464;28;20426;-64
2021/01/07 02:52:20;;;;;;;9.73;7.40;;;;;;;3.63;71.53;100623.66;5097563;28;20218;-64
2021/01/07 02:54:46;;;;;;;8.67;7.77;;;;;;;3.82;70.75;100621.75;5097806;28;20180;-64
2021/01/07 02:57:11;;;;;;;10.10;7.67;;;;;;;4.16;69.39;100626.34;5097540;28;20172;-65
2021/01/07 02:59:36;;;;;;;8.17;7.30;;;;;;;4.12;68.96;100621.06;5097359;28;20234;-65
2021/01/07 03:02:01;;;;;;;9.03;7.60;;;;;;;3.61;70.90;100614.13;5097866;28;20211;-65
2021/01/07 03:04:27;;;;;;;9.23;7.47;;;;;;;3.69;71.05;100625.59;5097363;28;20176;-65
2021/01/07 03:06:52;;;;;;;11.23;7.90;;;;;;;3.78;70.54;100618.19;5097127;28;20231;-65
2021/01/07 03:09:17;;;;;;;10.10;7.90;;;;;;;3.66;70.85;100620.31;5097659;28;20172;-65
2021/01/07 03:11:43;;;;;;;10.00;8.30;;;;;;;3.81;70.28;100620.00;5096581;28;20176;-65
2021/01/07 03:14:08;;;;;;;9.93;7.70;;;;;;;4.05;69.48;100618.25;5097196;28;20171;-65
2021/01/07 03:16:33;;;;;;;9.40;7.60;;;;;;;3.64;70.25;100615.13;5097691;28;20160;-65
2021/01/07 03:18:59;;;;;;;9.00;7.90;;;;;;;3.84;70.44;100618.41;5097248;28;20491;-65
2021/01/07 03:21:24;;;;;;;9.43;7.70;;;;;;;3.73;70.38;100616.28;5097158;28;20168;-64
2021/01/07 03:23:50;;;;;;;10.13;7.90;;;;;;;3.46;70.77;100617.03;5097208;28;20259;-64
2021/01/07 03:26:15;;;;;;;9.07;6.90;;;;;;;3.50;71.66;100614.59;5097248;28;20456;-64
2021/01/07 03:28:41;;;;;;;8.77;7.57;;;;;;;3.59;70.61;100611.50;5099880;28;20242;-64
2021/01/07 03:31:07;;;;;;;9.03;8.00;;;;;;;3.69;69.69;100612.69;5101136;28;20168;-64
2021/01/07 03:33:32;;;;;;;10.50;8.20;;;;;;;3.77;70.63;100607.81;5101232;28;20528;-64
2021/01/07 03:35:57;;;;;;;8.70;7.27;;;;;;;3.87;70.16;100604.75;5101542;28;20221;-64
2021/01/07 03:38:23;;;;;;;9.47;7.97;;;;;;;3.59;70.27;100606.34;5101068;28;20204;-65
2021/01/07 03:40:48;;;;;;;10.20;8.27;;;;;;;3.87;69.46;100604.75;5100927;28;20258;-65
2021/01/07 03:43:13;;;;;;;9.53;7.67;;;;;;;3.64;70.74;100609.06;5101272;28;20183;-64
2021/01/07 03:45:38;;;;;;;8.17;7.07;;;;;;;3.91;70.07;100610.88;5100827;28;20192;-65
2021/01/07 03:48:04;;;;;;;9.63;7.57;;;;;;;3.71;70.22;100599.03;5100813;28;20218;-65
2021/01/07 03:50:30;;;;;;;9.30;7.70;;;;;;;3.87;70.45;100602.16;5100326;28;20180;-64
2021/01/07 03:52:55;;;;;;;9.63;7.77;;;;;;;3.67;69.97;100599.75;5100379;28;20780;-64
2021/01/07 03:55:20;;;;;;;9.60;7.60;;;;;;;3.60;71.51;100600.38;5100794;28;20182;-65
2021/01/07 03:57:46;;;;;;;8.87;7.90;;;;;;;3.55;71.36;100601.91;5100920;28;20164;-65
2021/01/07 04:00:11;;;;;;;9.00;7.27;;;;;;;3.90;70.05;100604.84;5100457;28;20172;-64
2021/01/07 04:02:37;;;;;;;9.00;7.60;;;;;;;3.85;70.16;100603.81;5100607;28;20250;-65
2021/01/07 04:05:02;;;;;;;10.03;8.10;;;;;;;3.73;71.08;100598.22;5100971;28;20179;-65
2021/01/07 04:07:28;;;;;;;9.00;7.37;;;;;;;3.46;70.90;100597.28;5100540;28;20218;-65
2021/01/07 04:09:53;;;;;;;10.77;7.13;;;;;;;3.43;71.36;100602.31;5100102;28;20267;-64
2021/01/07 04:12:18;;;;;;;8.70;7.40;;;;;;;3.67;70.75;100594.59;5099970;28;20315;-65
2021/01/07 04:14:43;;;;;;;9.53;7.90;;;;;;;3.75;70.35;100593.97;5099704;28;20505;-65
2021/01/07 04:17:09;;;;;;;8.43;7.40;;;;;;;3.71;70.21;100599.03;5098860;28;20168;-64
2021/01/07 04:19:34;;;;;;;7.70;6.90;;;;;;;4.29;68.83;100595.78;5099937;28;20203;-65
2021/01/07 04:22:00;;;;;;;8.20;6.93;;;;;;;4.02;68.87;100589.78;5099556;28;20187;-65
2021/01/07 04:24:26;;;;;;;9.17;7.30;;;;;;;3.81;70.10;100597.66;5099191;28;20224;-66
2021/01/07 04:26:51;;;;;;;8.40;7.30;;;;;;;3.56;70.82;100595.03;5100347;28;20554;-65
2021/01/07 04:29:16;;;;;;;8.20;7.33;;;;;;;3.94;69.87;100590.34;5100005;28;20195;-64
2021/01/07 04:31:42;;;;;;;7.83;6.90;;;;;;;3.81;69.79;100589.91;5100006;28;20289;-64
2021/01/07 04:34:07;;;;;;;7.67;6.87;;;;;;;3.61;70.59;100589.22;5100380;28;20172;-65
2021/01/07 04:36:33;;;;;;;9.10;7.37;;;;;;;3.52;71.00;100592.34;5100030;28;20183;-65
2021/01/07 04:38:58;;;;;;;8.80;7.30;;;;;;;3.66;70.49;100590.25;5098579;28;20180;-64
2021/01/07 04:41:23;;;;;;;10.07;7.60;;;;;;;3.99;69.78;100587.09;5100153;28;20172;-65
2021/01/07 04:43:59;;;;;;;10.33;7.80;;;;;;;3.91;70.24;100590.22;5099814;28;20180;-64
2021/01/07 04:46:25;;;;;;;8.20;7.10;;;;;;;3.80;70.00;100592.44;5099640;28;20160;-65
2021/01/07 04:48:50;;;;;;;9.17;7.47;;;;;;;3.73;70.35;100590.50;5099694;28;20498;-65
2021/01/07 04:51:16;;;;;;;9.03;6.97;;;;;;;3.61;69.97;100589.22;5099606;28;20414;-65
2021/01/07 04:53:41;;;;;;;8.37;6.97;;;;;;;3.76;71.10;100586.31;5099889;28;20589;-65
2021/01/07 04:56:07;;;;;;;7.90;6.80;;;;;;;3.86;69.51;100587.50;5099620;28;20230;-65
2021/01/07 04:58:32;;;;;;;8.93;7.37;;;;;;;3.76;69.64;100588.91;5099603;28;20225;-64
2021/01/07 05:00:57;;;;;;;8.13;7.23;;;;;;;3.70;71.00;100584.38;5099784;28;20195;-65
2021/01/07 05:03:23;;;;;;;9.10;7.13;;;;;;;3.97;69.26;100593.91;5099483;28;20199;-65
2021/01/07 05:05:50;;;;;;;8.53;7.20;;;;;;;3.63;70.45;100582.44;5099525;28;20547;-65
2021/01/07 05:08:19;;;;;;;9.30;7.03;;;;;;;3.50;71.92;100585.38;5098927;28;20226;-65
2021/01/07 05:10:49;;;;;;;9.10;7.37;;;;;;;3.69;70.65;100585.22;5099184;28;20410;-65
2021/01/07 05:13:14;;;;;;;7.80;6.73;;;;;;;3.58;71.13;100588.25;5099414;28;20679;-65
2021/01/07 05:15:40;;;;;;;7.83;6.80;;;;;;;3.78;70.40;100591.53;5099578;28;20425;-64
2021/01/07 05:18:06;;;;;;;8.50;7.40;;;;;;;3.95;69.80;100585.25;5099287;28;20204;-65
2021/01/07 05:20:32;;;;;;;7.77;6.73;;;;;;;3.55;71.14;100589.00;5098971;28;20469;-65
2021/01/07 05:22:59;;;;;;;9.13;7.50;;;;;;;3.88;69.22;100591.00;5099105;28;20864;-65
2021/01/07 05:25:24;;;;;;;8.13;6.90;;;;;;;3.47;70.73;100585.28;5099153;28;20186;-65
2021/01/07 05:27:50;;;;;;;7.93;6.63;;;;;;;3.87;70.75;100589.28;5098141;28;20726;-65
2021/01/07 05:30:16;;;;;;;7.73;6.83;;;;;;;3.66;70.50;100589.38;5098878;28;20191;-64
2021/01/07 05:32:42;;;;;;;7.20;6.20;;;;;;;3.25;71.82;100593.91;5098024;28;20215;-65
2021/01/07 05:35:19;;;;;;;8.10;6.80;;;;;;;3.71;70.78;100581.00;5099219;28;20417;-65
2021/01/07 05:37:44;;;;;;;7.47;6.17;;;;;;;3.84;69.81;100595.19;5098841;28;20417;-65
2021/01/07 05:40:09;;;;;;;7.20;6.30;;;;;;;3.63;70.41;100585.00;5098760;28;20418;-64
2021/01/07 05:42:36;;;;;;;5.93;5.33;;;;;;;3.70;70.53;100586.97;5098781;28;20180;-64
2021/01/07 05:45:05;;;;;;;7.30;6.13;;;;;;;3.91;69.26;100587.66;5098735;28;20435;-64
2021/01/07 05:47:30;;;;;;;7.20;6.37;;;;;;;3.54;71.11;100587.25;5098779;28;20458;-64
2021/01/07 05:49:57;;;;;;;6.93;6.20;;;;;;;3.87;69.72;100589.28;5097318;28;20422;-65
2021/01/07 05:52:23;;;;;;;7.43;6.33;;;;;;;3.85;69.55;100589.19;5098404;28;20201;-64
2021/01/07 05:54:52;;;;;;;6.60;5.90;;;;;;;3.84;70.39;100589.16;5098688;28;20505;-65
2021/01/07 05:57:19;;;;;;;6.93;5.60;;;;;;;3.97;69.57;100582.72;5098408;28;20418;-65
2021/01/07 05:59:47;;;;;;;7.23;6.10;;;;;;;3.45;70.91;100590.38;5098321;28;20413;-65
2021/01/07 06:02:15;;;;;;;7.20;6.50;;;;;;;3.70;71.01;100586.97;5098740;28;20425;-65
2021/01/07 06:04:42;;;;;;;7.60;6.23;;;;;;;3.56;71.87;100583.03;5098365;28;20454;-65
2021/01/07 06:07:08;;;;;;;7.33;6.30;;;;;;;3.77;70.20;100584.63;5098169;28;20475;-64
2021/01/07 06:09:34;;;;;;;7.87;5.80;;;;;;;4.01;69.01;100582.88;5098536;28;20411;-64
2021/01/07 06:12:01;;;;;;;6.63;5.93;;;;;;;4.19;68.69;100586.88;5097401;28;20271;-64
2021/01/07 06:14:26;;;;;;;7.37;5.70;;;;;;;3.74;70.24;100580.22;5097959;28;20422;-64
2021/01/07 06:16:56;;;;;;;8.10;6.40;;;;;;;3.71;70.92;100581.00;5098486;28;20425;-66
2021/01/07 06:19:38;;;;;;;7.67;6.27;;;;;;;3.85;70.22;100591.78;5097601;28;20200;-65
2021/01/07 06:22:11;;;;;;;7.07;5.97;;;;;;;3.48;70.83;100580.19;5098175;28;20421;-64
2021/01/07 06:24:40;;;;;;;7.77;6.63;;;;;;;3.87;68.96;100584.13;5097752;28;20454;-64
2021/01/07 06:27:26;;;;;;;8.10;6.20;;;;;;;3.34;71.08;100583.94;5097731;28;20909;-65
2021/01/07 06:30:20;;;;;;;7.50;6.13;;;;;;;3.65;70.61;100577.31;5097865;28;20426;-64
2021/01/07 06:32:49;;;;;;;7.30;6.30;;;;;;;3.90;69.61;100575.56;5097847;28;20509;-65
2021/01/07 06:35:16;;;;;;;7.60;6.70;;;;;;;3.93;69.02;100578.28;5096921;28;20474;-65
2021/01/07 06:37:46;;;;;;;8.10;6.70;;;;;;;4.04;68.95;100577.78;5097861;28;20985;-65
2021/01/07 06:40:13;;;;;;;7.60;6.77;;;;;;;3.66;70.45;100579.94;5097952;28;20493;-64
2021/01/07 06:42:40;;;;;;;7.27;6.27;;;;;;;3.59;70.38;100585.72;5097723;28;20676;-64
2021/01/07 06:45:10;;;;;;;8.00;7.17;;;;;;;3.40;72.03;100584.19;5097557;28;20819;-64
2021/01/07 06:47:41;;;;;;;7.37;6.60;;;;;;;3.85;70.13;100588.34;5098042;28;20454;-65
2021/01/07 06:50:06;;;;;;;15.90;11.33;;;;;;;3.93;70.03;100591.19;5097505;28;20426;-65
2021/01/07 06:52:38;;;;;;;17.50;12.93;;;;;;;3.53;71.24;100585.50;5097311;28;20426;-64
2021/01/07 06:55:11;;;;;;;12.43;9.30;;;;;;;3.64;71.03;100588.44;5097452;28;20176;-64
2021/01/07 06:57:47;;;;;;;12.67;9.20;;;;;;;3.34;72.44;100591.69;5097646;28;20410;-65
2021/01/07 07:00:19;;;;;;;10.53;8.63;;;;;;;3.77;70.94;100584.63;5097412;28;20406;-65
2021/01/07 07:03:02;;;;;;;8.17;7.30;;;;;;;3.86;70.71;100590.09;5096861;28;20414;-65
2021/01/07 07:05:31;;;;;;;8.70;7.47;;;;;;;3.97;69.88;100596.47;5097421;28;20423;-65
2021/01/07 07:08:16;;;;;;;9.13;7.47;;;;;;;4.02;69.78;100592.38;5097376;28;20466;-65
2021/01/07 07:10:54;;;;;;;9.17;7.70;;;;;;;3.76;70.54;100595.75;5097127;28;20418;-65
2021/01/07 07:13:20;;;;;;;11.50;8.80;;;;;;;3.99;70.23;100586.22;5097261;28;20446;-65
2021/01/07 07:15:47;;;;;;;10.33;7.93;;;;;;;3.94;69.81;100591.22;5097168;28;20513;-66
2021/01/07 07:18:12;;;;;;;10.37;7.90;;;;;;;3.94;70.20;100598.97;5097328;28;20418;-65
2021/01/07 07:20:39;;;;;;;9.57;7.73;;;;;;;4.27;68.39;100598.34;5097219;28;20421;-66
2021/01/07 07:23:21;;;;;;;10.33;8.20;;;;;;;3.84;69.63;100607.19;5096949;28;20179;-66
2021/01/07 07:25:52;;;;;;;8.97;7.00;;;;;;;4.31;68.79;100617.38;5097349;28;20422;-65
2021/01/07 07:28:19;;;;;;;8.40;6.80;;;;;;;4.11;69.54;100608.97;5096982;28;20475;-66
2021/01/07 07:30:46;;;;;;;10.20;8.07;;;;;;;4.08;69.93;100619.19;5096985;28;20418;-65
2021/01/07 07:33:33;;;;;;;8.40;7.30;;;;;;;3.62;71.69;100621.03;5097034;28;20680;-66
2021/01/07 07:35:58;;;;;;;9.13;7.53;;;;;;;3.65;71.07;100610.84;5097031;28;20425;-66
2021/01/07 07:38:32;;;;;;;9.40;7.23;;;;;;;3.58;71.88;100614.03;5097035;28;20784;-65
2021/01/07 07:41:06;;;;;;;8.80;7.27;;;;;;;3.91;70.88;100616.91;5096971;28;20183;-64
2021/01/07 07:43:33;;;;;;;8.33;6.97;;;;;;;3.95;70.37;100626.53;5096439;28;20429;-65
2021/01/07 07:45:59;;;;;;;9.30;7.70;;;;;;;3.88;70.84;100619.38;5097058;28;20417;-66
2021/01/07 07:48:26;;;;;;;12.67;7.77;;;;;;;3.66;71.54;100628.94;5097323;28;20721;-66
2021/01/07 07:51:03;;;;;;;9.00;7.23;;;;;;;3.80;70.40;100634.59;5096816;28;20424;-64
2021/01/07 07:53:28;;;;;;;11.37;7.57;;;;;;;4.13;71.60;100635.72;5096976;28;20414;-65
2021/01/07 07:55:54;;;;;;;10.40;8.07;;;;;;;3.90;70.26;100632.31;5096741;28;20543;-65
2021/01/07 07:58:19;;;;;;;11.20;8.50;;;;;;;3.78;72.13;100635.38;5096170;28;20710;-66
2021/01/07 08:00:51;;;;;;;10.53;8.10;;;;;;;3.96;71.27;100635.13;5097192;28;20534;-65
2021/01/07 08:03:25;;;;;;;9.90;8.37;;;;;;;4.05;70.50;100641.47;5096959;28;20172;-65
2021/01/07 08:05:50;;;;;;;11.10;8.60;;;;;;;3.85;71.46;100645.06;5096696;28;20414;-64
2021/01/07 08:08:26;;;;;;;9.93;7.40;;;;;;;3.61;71.88;100643.34;5096706;28;20873;-65
2021/01/07 08:10:52;;;;;;;10.20;8.30;;;;;;;3.81;70.70;100650.94;5096611;28;20168;-65
2021/01/07 08:13:22;;;;;;;9.43;7.57;;;;;;;4.05;70.68;100651.78;5097677;28;20427;-64
2021/01/07 08:15:49;;;;;;;9.20;7.53;;;;;;;3.74;71.13;100654.13;5099507;28;20421;-65
2021/01/07 08:18:15;;;;;;;7.67;6.73;;;;;;;3.45;71.56;100647.09;5100553;28;20408;-65
2021/01/07 08:20:40;;;;;;;9.50;7.50;;;;;;;4.08;70.73;100656.19;5099313;28;20517;-65
2021/01/07 08:23:10;;;;;;;8.53;7.10;;;;;;;4.01;70.61;100652.50;5099907;28;20602;-66
2021/01/07 08:25:37;;;;;;;9.93;7.93;;;;;;;4.29;69.81;100657.72;5100429;28;20172;-65
2021/01/07 08:28:28;;;;;;;11.80;8.70;;;;;;;4.16;70.21;100648.72;5099890;28;20545;-65
2021/01/07 08:31:09;;;;;;;8.97;7.33;;;;;;;4.17;70.41;100647.91;5099205;28;20414;-64
2021/01/07 08:33:35;;;;;;;9.40;7.50;;;;;;;4.26;69.42;100650.75;5099817;28;20446;-65
2021/01/07 08:36:02;;;;;;;11.13;7.40;;;;;;;3.96;70.51;100651.47;5099856;28;20477;-65
2021/01/07 08:38:31;;;;;;;9.83;7.80;;;;;;;3.98;70.87;100656.72;5099832;28;20237;-65
2021/01/07 08:41:14;;;;;;;8.17;7.10;;;;;;;3.73;70.72;100653.22;5098949;28;20407;-64
2021/01/07 08:43:40;;;;;;;9.30;8.33;;;;;;;3.73;71.68;100653.22;5099934;28;20830;-65
2021/01/07 08:46:24;;;;;;;8.20;7.20;;;;;;;3.27;72.53;100649.84;5099777;28;20422;-65
2021/01/07 08:49:01;;;;;;;8.50;7.43;;;;;;;3.80;71.54;100650.06;5099608;28;20745;-65
2021/01/07 08:51:27;;;;;;;8.17;6.70;;;;;;;3.86;71.63;100650.28;5099443;28;20463;-64
2021/01/07 08:53:54;;;;;;;9.80;6.90;;;;;;;3.91;70.64;100642.72;5099518;28;20438;-65
2021/01/07 08:56:32;;;;;;;9.83;7.47;;;;;;;3.51;71.58;100649.00;5099596;28;20168;-64
2021/01/07 08:59:32;;;;;;;7.90;7.10;;;;;;;4.25;70.29;100645.56;5099501;28;20467;-65
2021/01/07 09:02:17;;;;;;;8.73;7.33;;;;;;;3.91;70.97;100652.13;5099426;28;20410;-66
2021/01/07 09:04:44;;;;;;;10.70;7.97;;;;;;;4.15;70.12;100641.78;5099230;28;20422;-65
2021/01/07 09:07:15;;;;;;;8.87;7.43;;;;;;;3.99;70.27;100646.44;5098549;28;20497;-65
2021/01/07 09:09:53;;;;;;;9.30;7.33;;;;;;;3.60;71.83;100643.28;5099155;28;21539;-66
2021/01/07 09:12:22;;;;;;;8.60;7.40;;;;;;;3.83;71.85;100647.59;5099033;28;20425;-65
2021/01/07 09:14:52;;;;;;;8.60;6.87;;;;;;;3.92;71.63;100647.03;5099042;28;20433;-65
2021/01/07 09:17:19;;;;;;;8.50;7.40;;;;;;;4.38;70.46;100645.13;5099021;28;20441;-65
2021/01/07 09:19:45;;;;;;;9.13;8.10;;;;;;;4.22;70.58;100644.63;5098784;28;20483;-64
2021/01/07 09:22:21;;;;;;;11.47;8.77;;;;;;;4.32;70.39;100650.97;5099082;28;20428;-65
2021/01/07 09:24:47;;;;;;;8.50;7.37;;;;;;;4.25;69.90;100648.13;5097921;28;20461;-65
2021/01/07 09:27:15;;;;;;;9.37;7.97;;;;;;;4.50;69.06;100649.84;5098561;28;20843;-66
2021/01/07 09:29:40;;;;;;;10.70;8.23;;;;;;;4.36;70.28;100649.38;5099002;28;20898;-65
2021/01/07 09:32:07;;;;;;;9.60;7.83;;;;;;;4.22;70.33;100654.97;5098808;28;20497;-65
2021/01/07 09:34:33;;;;;;;9.83;7.87;;;;;;;4.29;70.17;100656.03;5098942;28;20188;-65
2021/01/07 09:37:04;;;;;;;10.30;8.47;;;;;;;4.05;71.22;100651.78;5099092;28;20501;-64
2021/01/07 09:39:29;;;;;;;11.00;8.03;;;;;;;4.28;70.46;100653.41;5098531;28;20525;-65
2021/01/07 09:41:54;;;;;;;9.20;7.93;;;;;;;4.02;70.25;100655.97;5098555;28;20418;-65
2021/01/07 09:44:20;;;;;;;10.07;8.33;;;;;;;3.93;71.44;100656.53;5099039;28;20451;-65
2021/01/07 09:46:45;;;;;;;10.20;8.27;;;;;;;4.51;70.92;100652.47;5098432;28;20176;-64
2021/01/07 09:49:10;;;;;;;11.40;8.83;;;;;;;3.60;72.89;100662.25;5098471;28;20176;-64
2021/01/07 09:51:36;;;;;;;9.97;7.93;;;;;;;4.09;71.79;100652.78;5098880;28;20172;-63
2021/01/07 09:54:01;;;;;;;8.90;7.80;;;;;;;4.19;70.87;100649.72;5098386;28;20537;-65
2021/01/07 09:56:26;;;;;;;9.07;7.53;;;;;;;4.50;70.87;100644.69;5098593;28;20454;-65
2021/01/07 09:58:52;;;;;;;10.37;7.30;;;;;;;3.64;72.68;100652.91;5098652;28;20168;-65
2021/01/07 10:01:18;;;;;;;8.30;7.10;;;;;;;3.66;72.42;100641.81;5098247;28;20168;-65
2021/01/07 10:03:44;;;;;;;9.27;7.47;;;;;;;4.20;71.49;100645.41;5098131;28;20817;-65
2021/01/07 10:06:09;;;;;;;9.80;7.63;;;;;;;4.28;70.91;100651.69;5098392;28;20407;-65
2021/01/07 10:08:34;;;;;;;9.50;6.10;;;;;;;4.24;71.42;100649.84;5097813;28;20216;-66
2021/01/07 10:11:00;;;;;;;12.50;7.73;;;;;;;4.38;71.22;100635.72;5098011;28;20266;-67
2021/01/07 10:13:25;;;;;;;8.50;7.40;;;;;;;4.30;70.13;100639.75;5098417;28;20168;-65
2021/01/07 10:15:51;;;;;;;8.80;7.40;;;;;;;4.80;68.80;100644.78;5098151;28;20180;-66
2021/01/07 10:18:17;;;;;;;7.40;6.40;;;;;;;4.09;71.29;100636.44;5098051;28;20184;-65
2021/01/07 10:20:42;;;;;;;8.67;7.10;;;;;;;4.38;70.54;100639.97;5098082;28;20450;-66
2021/01/07 10:23:08;;;;;;;9.20;7.00;;;;;;;4.16;70.05;100639.25;5097579;28;20461;-65
2021/01/07 10:25:34;;;;;;;8.10;6.17;;;;;;;3.73;71.47;100636.91;5097196;28;20175;-66
2021/01/07 10:28:00;;;;;;;8.03;6.30;;;;;;;4.45;70.62;100636.78;5097316;28;20446;-64
2021/01/07 10:30:25;;;;;;;7.93;6.70;;;;;;;4.08;71.16;100634.69;5096943;28;20469;-66
2021/01/07 10:32:53;;;;;;;8.80;6.53;;;;;;;4.31;70.40;100628.56;5096947;28;20429;-66
2021/01/07 10:35:21;;;;;;;8.63;6.73;;;;;;;4.51;69.88;100636.97;5097957;28;20438;-67
2021/01/07 10:37:47;;;;;;;9.10;7.03;;;;;;;4.51;69.26;100636.13;5109255;28;20440;-65
2021/01/07 10:40:14;;;;;;;10.77;8.07;;;;;;;4.85;70.16;100642.34;5117170;28;20695;-66
2021/01/07 10:42:39;;;;;;;12.13;7.83;;;;;;;4.67;69.76;100635.78;5118210;28;20266;-66
2021/01/07 10:45:06;;;;;;;8.43;7.10;;;;;;;4.42;70.64;100631.50;5117130;28;21745;-66
2021/01/07 10:47:37;;;;;;;8.90;7.40;;;;;;;3.95;71.88;100634.25;5117082;28;20247;-66
2021/01/07 10:50:03;;;;;;;7.90;6.50;;;;;;;4.46;70.62;100635.06;5117430;28;20417;-66
2021/01/07 10:52:36;;;;;;;7.63;6.50;;;;;;;4.05;70.87;100631.16;5117802;28;20471;-66
2021/01/07 10:55:19;;;;;;;8.30;6.80;;;;;;;4.12;71.05;100636.53;5117063;28;20861;-68
2021/01/07 10:57:52;;;;;;;6.83;5.77;;;;;;;4.30;70.70;100626.84;5117854;28;20413;-66
2021/01/07 11:00:33;;;;;;;7.93;6.17;;;;;;;4.10;71.58;100633.91;5117678;28;20402;-67
2021/01/07 11:03:03;;;;;;;7.17;6.33;;;;;;;4.65;69.15;100623.63;5117799;28;20413;-67
2021/01/07 11:05:37;;;;;;;7.00;6.30;;;;;;;4.11;70.53;100624.44;5117777;28;20421;-67
2021/01/07 11:08:14;;;;;;;7.23;6.00;;;;;;;3.49;72.91;100623.19;5117555;28;20500;-64
2021/01/07 11:10:43;;;;;;;7.83;6.70;;;;;;;3.81;71.55;100625.16;5117441;28;20427;-69
2021/01/07 11:13:09;;;;;;;7.57;6.80;;;;;;;4.30;70.86;100624.25;5117503;28;20488;-65
2021/01/07 11:15:36;;;;;;;8.20;7.03;;;;;;;4.37;70.28;100615.88;5117615;28;20878;-67
2021/01/07 11:18:11;;;;;;;7.70;6.90;;;;;;;4.16;71.05;100618.63;5117211;28;20244;-66
2021/01/07 11:20:39;;;;;;;7.00;5.87;;;;;;;4.14;70.87;100609.06;5117693;28;20872;-64
2021/01/07 11:23:05;;;;;;;7.80;6.63;;;;;;;4.24;71.87;100615.44;5116749;28;20427;-65
2021/01/07 11:25:31;;;;;;;7.50;6.47;;;;;;;4.14;71.68;100616.81;5116789;28;20424;-67
2021/01/07 11:27:56;;;;;;;7.63;6.47;;;;;;;3.99;71.88;100614.59;5117308;28;20738;-66
2021/01/07 11:30:23;;;;;;;9.30;7.17;;;;;;;3.62;72.49;100611.59;5116696;28;20175;-66
2021/01/07 11:32:48;;;;;;;9.37;7.40;;;;;;;3.93;71.76;100610.09;5117539;28;20167;-66
2021/01/07 11:35:13;;;;;;;9.20;6.70;;;;;;;3.75;73.50;100609.44;5117370;28;20413;-65